createdAt,value
2018-12-06T00:01:12.709Z,95712.93
2018-12-06T00:03:42.604Z,95712.94
2018-12-06T00:06:12.468Z,95732.36
2018-12-06T00:08:43.729Z,95722.86
2018-12-06T00:11:13.648Z,95724.25
2018-12-06T00:13:43.596Z,95715.98
2018-12-06T00:16:13.475Z,95716.41
2018-12-06T00:18:45.449Z,95678.98
2018-12-06T00:21:15.305Z,95702.34
2018-12-06T00:23:45.773Z,95692.87
2018-12-06T00:26:16.116Z,95704.00
2018-12-06T00:28:45.944Z,95718.78
2018-12-06T00:31:15.850Z,95752.83
2018-12-06T00:33:45.729Z,95736.39
2018-12-06T00:36:15.653Z,95731.64
2018-12-06T00:38:45.614Z,95754.02
2018-12-06T00:41:15.457Z,95756.16
2018-12-06T00:43:45.410Z,95745.41
2018-12-06T00:46:15.818Z,95741.93
2018-12-06T00:48:45.759Z,95744.92
2018-12-06T00:51:15.659Z,95747.03
2018-12-06T00:53:47.014Z,95756.60
2018-12-06T00:56:17.042Z,95770.81
2018-12-06T00:58:47.026Z,95793.25
2018-12-06T01:01:17.051Z,95808.37
2018-12-06T01:03:46.921Z,95794.17
2018-12-06T01:06:16.810Z,95798.88
2018-12-06T01:08:46.689Z,95798.42
2018-12-06T01:11:16.816Z,95792.34
2018-12-06T01:13:46.871Z,95784.55
2018-12-06T01:16:17.658Z,95781.92
2018-12-06T01:18:47.540Z,95781.92
2018-12-06T01:21:17.470Z,95780.61
2018-12-06T01:23:47.401Z,95776.72
2018-12-06T01:26:17.717Z,95772.01
2018-12-06T01:28:47.750Z,95771.98
2018-12-06T01:31:18.043Z,95777.19
2018-12-06T01:33:47.958Z,95781.48
2018-12-06T01:36:17.805Z,95779.75
2018-12-06T01:38:47.649Z,95771.56
2018-12-06T01:41:18.104Z,95790.53
2018-12-06T01:43:48.044Z,95798.03
2018-12-06T01:46:17.871Z,95803.59
2018-12-06T01:48:47.935Z,95797.98
2018-12-06T01:51:17.890Z,95810.55
2018-12-06T01:53:47.878Z,95824.36
2018-12-06T01:56:17.769Z,95818.33
2018-12-06T01:58:47.604Z,95826.48
2018-12-06T02:01:17.455Z,95826.93
2018-12-06T02:03:47.336Z,95820.44
2018-12-06T02:06:17.257Z,95820.46
2018-12-06T02:08:47.114Z,95823.45
2018-12-06T02:11:16.973Z,95815.70
2018-12-06T02:13:46.849Z,95810.52
2018-12-06T02:16:16.816Z,95813.11
2018-12-06T02:18:46.749Z,95810.10
2018-12-06T02:21:16.587Z,95810.98
2018-12-06T02:23:46.556Z,95801.87
2018-12-06T02:26:16.553Z,95798.39
2018-12-06T02:28:46.601Z,95799.23
2018-12-06T02:31:16.457Z,95797.56
2018-12-06T02:33:46.805Z,95788.48
2018-12-06T02:36:16.662Z,95784.59
2018-12-06T02:38:46.554Z,95791.91
2018-12-06T02:41:16.629Z,95783.66
2018-12-06T02:43:46.584Z,95791.84
2018-12-06T02:46:16.478Z,95785.36
2018-12-06T02:48:46.325Z,95779.31
2018-12-06T02:51:16.190Z,95769.38
2018-12-06T02:53:46.122Z,95760.33
2018-12-06T02:56:16.021Z,95755.53
2018-12-06T02:58:45.942Z,95746.05
2018-12-06T03:01:15.883Z,95740.86
2018-12-06T03:03:45.844Z,95732.17
2018-12-06T03:06:15.700Z,95733.45
2018-12-06T03:08:45.511Z,95727.38
2018-12-06T03:11:15.427Z,95724.81
2018-12-06T03:13:45.697Z,95720.91
2018-12-06T03:16:15.543Z,95712.25
2018-12-06T03:18:45.437Z,95717.84
2018-12-06T03:21:15.297Z,95715.23
2018-12-06T03:23:45.168Z,95719.13
2018-12-06T03:26:15.103Z,95720.81
2018-12-06T03:28:44.982Z,95721.69
2018-12-06T03:31:14.929Z,95720.37
2018-12-06T03:33:44.847Z,95719.02
2018-12-06T03:36:14.869Z,95719.87
2018-12-06T03:38:44.706Z,95719.87
2018-12-06T03:41:14.574Z,95728.45
2018-12-06T03:43:44.490Z,95727.56
2018-12-06T03:46:14.379Z,95714.58
2018-12-06T03:48:44.254Z,95713.69
2018-12-06T03:51:14.064Z,95712.78
2018-12-06T03:53:43.889Z,95712.34
2018-12-06T03:56:13.741Z,95712.30
2018-12-06T03:58:43.572Z,95709.27
2018-12-06T04:01:13.577Z,95702.73
2018-12-06T04:03:44.461Z,95699.27
2018-12-06T04:06:14.312Z,95694.89
2018-12-06T04:08:44.237Z,95689.26
2018-12-06T04:11:14.254Z,95693.14
2018-12-06T04:13:44.150Z,95699.17
2018-12-06T04:16:13.987Z,95696.16
2018-12-06T04:18:43.873Z,95690.48
2018-12-06T04:21:14.182Z,95692.66
2018-12-06T04:23:44.104Z,95694.37
2018-12-06T04:26:14.037Z,95687.44
2018-12-06T04:28:44.729Z,95678.34
2018-12-06T04:31:14.665Z,95677.05
2018-12-06T04:33:44.859Z,95654.55
2018-12-06T04:36:14.708Z,95653.22
2018-12-06T04:38:44.623Z,95653.64
2018-12-06T04:41:14.596Z,95648.87
2018-12-06T04:43:44.550Z,95656.66
2018-12-06T04:46:14.396Z,95656.23
2018-12-06T04:48:44.250Z,95661.00
2018-12-06T04:51:14.301Z,95662.23
2018-12-06T04:53:44.199Z,95653.58
2018-12-06T04:56:14.045Z,95657.42
2018-12-06T04:58:43.934Z,95653.57
2018-12-06T05:01:13.796Z,95658.69
2018-12-06T05:03:43.694Z,95663.45
2018-12-06T05:06:13.869Z,95666.46
2018-12-06T05:08:44.305Z,95674.20
2018-12-06T05:11:14.205Z,95676.83
2018-12-06T05:13:44.146Z,95685.91
2018-12-06T05:16:13.967Z,95688.46
2018-12-06T05:18:44.054Z,95701.39
2018-12-06T05:21:14.552Z,95699.64
2018-12-06T05:23:44.508Z,95710.86
2018-12-06T05:26:14.900Z,95711.84
2018-12-06T05:28:44.910Z,95727.52
2018-12-06T05:31:14.932Z,95732.22
2018-12-06T05:33:45.533Z,95719.22
2018-12-06T05:36:15.476Z,95720.42
2018-12-06T05:38:45.516Z,95718.67
2018-12-06T05:41:15.354Z,95729.08
2018-12-06T05:43:45.235Z,95716.53
2018-12-06T05:46:15.064Z,95696.17
2018-12-06T05:48:44.947Z,95713.09
2018-12-06T05:51:14.815Z,95719.61
2018-12-06T05:53:44.626Z,95714.39
2018-12-06T05:56:15.129Z,95720.00
2018-12-06T05:58:45.379Z,95713.52
2018-12-06T06:01:15.245Z,95713.94
2018-12-06T06:03:45.251Z,95718.25
2018-12-06T06:06:15.209Z,95723.53
2018-12-06T06:08:45.210Z,95735.59
2018-12-06T06:11:15.803Z,95739.58
2018-12-06T06:13:46.412Z,95737.77
2018-12-06T06:16:16.248Z,95733.84
2018-12-06T06:18:46.136Z,95732.92
2018-12-06T06:21:16.640Z,95736.81
2018-12-06T06:23:46.908Z,95738.95
2018-12-06T06:26:16.927Z,95747.13
2018-12-06T06:28:46.789Z,95748.42
2018-12-06T06:31:16.774Z,95760.93
2018-12-06T06:33:46.641Z,95752.73
2018-12-06T06:36:16.534Z,95759.31
2018-12-06T06:38:46.378Z,95763.72
2018-12-06T06:41:16.253Z,95757.14
2018-12-06T06:43:46.084Z,95768.75
2018-12-06T06:46:15.901Z,95774.35
2018-12-06T06:48:45.889Z,95774.32
2018-12-06T06:51:15.753Z,95779.47
2018-12-06T06:53:45.596Z,95775.58
2018-12-06T06:56:15.996Z,95781.16
2018-12-06T06:58:48.335Z,95779.86
2018-12-06T07:01:18.195Z,95780.70
2018-12-06T07:03:48.001Z,95775.52
2018-12-06T07:06:17.857Z,95779.41
2018-12-06T07:08:47.697Z,95771.17
2018-12-06T07:11:17.585Z,95773.73
2018-12-06T07:13:47.427Z,95776.29
2018-12-06T07:16:17.239Z,95776.33
2018-12-06T07:18:47.092Z,95778.01
2018-12-06T07:21:16.918Z,95772.36
2018-12-06T07:23:47.065Z,95773.20
2018-12-06T07:26:16.893Z,95771.87
2018-12-06T07:28:46.730Z,95767.52
2018-12-06T07:31:16.988Z,95770.95
2018-12-06T07:33:46.862Z,95768.33
2018-12-06T07:36:18.522Z,95770.92
2018-12-06T07:38:49.353Z,95772.19
2018-12-06T07:41:19.330Z,95768.25
2018-12-06T07:43:49.142Z,95766.04
2018-12-06T07:46:18.986Z,95765.62
2018-12-06T07:48:48.887Z,95762.53
2018-12-06T07:51:18.735Z,95769.81
2018-12-06T07:53:48.597Z,95764.13
2018-12-06T07:56:18.447Z,95762.41
2018-12-06T07:58:48.538Z,95766.72
2018-12-06T08:01:18.415Z,95761.94
2018-12-06T08:03:48.272Z,95766.80
2018-12-06T08:06:18.098Z,95773.29
2018-12-06T08:08:48.004Z,95775.46
2018-12-06T08:11:18.100Z,95779.81
2018-12-06T08:13:48.824Z,95781.98
2018-12-06T08:16:18.658Z,95780.16
2018-12-06T08:18:48.508Z,95781.53
2018-12-06T08:21:18.359Z,95787.45
2018-12-06T08:23:48.179Z,95787.78
2018-12-06T08:26:19.769Z,95794.15
2018-12-06T08:28:53.794Z,95799.64
2018-12-06T08:31:23.673Z,95799.55
2018-12-06T08:33:53.551Z,95795.20
2018-12-06T08:36:27.026Z,95800.72
2018-12-06T08:38:56.862Z,95807.63
2018-12-06T08:41:27.486Z,95811.48
2018-12-06T08:43:57.506Z,95817.94
2018-12-06T08:46:28.403Z,95825.64
2018-12-06T08:49:03.011Z,95825.13
2018-12-06T08:51:35.134Z,95828.99
2018-12-06T08:54:05.322Z,95831.96
2018-12-06T08:56:35.161Z,95833.67
2018-12-06T08:59:05.138Z,95840.55
2018-12-06T09:01:34.966Z,95846.63
2018-12-06T09:04:04.909Z,95853.08
2018-12-06T09:06:34.761Z,95856.94
2018-12-06T09:09:07.635Z,95855.18
2018-12-06T09:11:41.982Z,95859.49
2018-12-06T09:14:11.858Z,95860.75
2018-12-06T09:16:42.046Z,95871.89
2018-12-06T09:19:11.898Z,95875.33
2018-12-06T09:21:41.773Z,95873.14
2018-12-06T09:24:14.929Z,95871.34
2018-12-06T09:26:49.004Z,95877.80
2018-12-06T09:29:18.841Z,95882.98
2018-12-06T09:31:48.704Z,95886.42
2018-12-06T09:34:19.315Z,95891.11
2018-12-06T09:36:49.142Z,95891.95
2018-12-06T09:39:19.006Z,95902.30
2018-12-06T09:41:48.838Z,95898.40
2018-12-06T09:44:20.362Z,95895.75
2018-12-06T09:46:50.206Z,95895.28
2018-12-06T09:49:20.050Z,95896.95
2018-12-06T09:51:50.007Z,95897.38
2018-12-06T09:54:19.852Z,95889.05
2018-12-06T09:56:49.707Z,95890.36
2018-12-06T09:59:19.565Z,95885.11
2018-12-06T10:01:49.408Z,95885.94
2018-12-06T10:04:19.275Z,95889.79
2018-12-06T10:06:49.119Z,95888.44
2018-12-06T10:09:19.093Z,95887.95
2018-12-06T10:11:48.929Z,95889.64
2018-12-06T10:14:22.434Z,95889.17
2018-12-06T10:16:52.378Z,95880.48
2018-12-06T10:19:22.234Z,95889.95
2018-12-06T10:21:52.819Z,95888.55
2018-12-06T10:24:22.694Z,95882.39
2018-12-06T10:26:52.621Z,95883.63
2018-12-06T10:29:23.077Z,95893.17
2018-12-06T10:31:53.152Z,95891.34
2018-12-06T10:34:23.005Z,95896.55
2018-12-06T10:36:53.575Z,95893.05
2018-12-06T10:39:23.530Z,95897.33
2018-12-06T10:41:56.920Z,95903.39
2018-12-06T10:44:30.067Z,95903.39
2018-12-06T10:46:59.957Z,95904.24
2018-12-06T10:49:38.039Z,95901.98
2018-12-06T10:52:08.030Z,95908.13
2018-12-06T10:54:38.968Z,95908.09
2018-12-06T10:57:09.378Z,95908.13
2018-12-06T10:59:39.365Z,95910.22
2018-12-06T11:02:14.570Z,95904.95
2018-12-06T11:04:45.481Z,95900.05
2018-12-06T11:07:15.345Z,95905.72
2018-12-06T11:09:45.610Z,95915.72
2018-12-06T11:12:15.523Z,95913.17
2018-12-06T11:14:45.531Z,95915.89
2018-12-06T11:17:16.065Z,95918.86
2018-12-06T11:19:46.813Z,95922.87
2018-12-06T11:22:20.323Z,95913.23
2018-12-06T11:24:50.257Z,95915.37
2018-12-06T11:27:23.781Z,95918.38
2018-12-06T11:29:53.698Z,95924.38
2018-12-06T11:32:23.662Z,95932.11
2018-12-06T11:34:53.560Z,95930.00
2018-12-06T11:37:23.451Z,95927.91
2018-12-06T11:39:53.391Z,95924.30
2018-12-06T11:42:23.574Z,95918.92
2018-12-06T11:44:55.266Z,95922.71
2018-12-06T11:47:25.176Z,95920.89
2018-12-06T11:49:55.073Z,95920.41
2018-12-06T11:52:24.958Z,95916.51
2018-12-06T11:54:54.871Z,95915.56
2018-12-06T11:57:24.783Z,95908.14
2018-12-06T11:59:54.638Z,95911.16
2018-12-06T12:02:24.514Z,95902.05
2018-12-06T12:04:54.429Z,95903.17
2018-12-06T12:07:24.282Z,95895.05
2018-12-06T12:09:54.151Z,95887.45
2018-12-06T12:12:24.909Z,95892.00
2018-12-06T12:14:54.827Z,95889.08
2018-12-06T12:17:24.716Z,95881.00
2018-12-06T12:19:55.538Z,95875.11
2018-12-06T12:22:25.390Z,95867.70
2018-12-06T12:24:55.353Z,95868.66
2018-12-06T12:27:26.770Z,95871.98
2018-12-06T12:29:56.981Z,95871.45
2018-12-06T12:32:26.863Z,95870.40
2018-12-06T12:34:56.746Z,95868.84
2018-12-06T12:37:26.634Z,95865.58
2018-12-06T12:39:56.472Z,95871.30
2018-12-06T12:42:26.356Z,95871.70
2018-12-06T12:44:56.258Z,95873.17
2018-12-06T12:47:31.192Z,95872.87
2018-12-06T12:50:01.113Z,95881.33
2018-12-06T12:52:30.991Z,95880.27
2018-12-06T12:55:00.898Z,95891.13
2018-12-06T12:57:30.741Z,95886.64
2018-12-06T13:00:00.638Z,95885.09
2018-12-06T13:02:32.588Z,95880.22
2018-12-06T13:05:02.466Z,95881.66
2018-12-06T13:07:32.342Z,95882.09
2018-12-06T13:10:02.212Z,95882.86
2018-12-06T13:12:32.101Z,95869.67
2018-12-06T13:15:01.979Z,95875.84
2018-12-06T13:17:31.989Z,95879.65
2018-12-06T13:20:01.919Z,95876.69
2018-12-06T13:22:31.794Z,95874.94
2018-12-06T13:25:01.686Z,95863.37
2018-12-06T13:27:31.656Z,95865.31
2018-12-06T13:30:01.509Z,95865.09
2018-12-06T13:32:31.623Z,95868.64
2018-12-06T13:35:01.476Z,95872.08
2018-12-06T13:37:31.609Z,95873.08
2018-12-06T13:40:01.504Z,95878.48
2018-12-06T13:42:31.414Z,95878.98
2018-12-06T13:45:01.338Z,95885.66
2018-12-06T13:47:31.254Z,95884.27
2018-12-06T13:50:01.123Z,95894.02
2018-12-06T13:52:31.003Z,95900.78
2018-12-06T13:55:00.839Z,95908.70
2018-12-06T13:57:30.693Z,95902.07
2018-12-06T14:00:00.659Z,95914.33
2018-12-06T14:02:30.532Z,95915.53
2018-12-06T14:05:00.377Z,95919.14
2018-12-06T14:07:30.246Z,95920.31
2018-12-06T14:10:00.126Z,95926.16
2018-12-06T14:12:29.995Z,95936.67
2018-12-06T14:14:59.850Z,95931.23
2018-12-06T14:17:29.737Z,95935.98
2018-12-06T14:19:59.652Z,95937.89
2018-12-06T14:22:29.583Z,95942.16
2018-12-06T14:24:59.673Z,95950.59
2018-12-06T14:27:30.327Z,95949.50
2018-12-06T14:30:04.536Z,95947.80
2018-12-06T14:32:34.407Z,95947.84
2018-12-06T14:35:04.471Z,95955.45
2018-12-06T14:37:34.385Z,95951.67
2018-12-06T14:40:05.410Z,95951.78
2018-12-06T14:42:35.361Z,95957.89
2018-12-06T14:45:06.075Z,95963.66
2018-12-06T14:47:36.068Z,95961.51
2018-12-06T14:50:06.161Z,95961.98
2018-12-06T14:52:36.024Z,95961.98
2018-12-06T14:55:06.213Z,95956.37
2018-12-06T14:57:36.085Z,95959.97
2018-12-06T15:00:08.046Z,95950.80
2018-12-06T15:02:37.959Z,95953.82
2018-12-06T15:05:09.680Z,95959.08
2018-12-06T15:07:39.601Z,95960.80
2018-12-06T15:10:09.710Z,95959.97
2018-12-06T15:12:39.604Z,95966.07
2018-12-06T15:15:09.749Z,95970.92
2018-12-06T15:17:41.937Z,95978.05
2018-12-06T15:20:13.142Z,95978.09
2018-12-06T15:22:43.583Z,95981.58
2018-12-06T15:25:13.937Z,95972.36
2018-12-06T15:27:43.953Z,95985.44
2018-12-06T15:30:13.815Z,95987.16
2018-12-06T15:32:48.185Z,95983.37
2018-12-06T15:35:20.163Z,95993.36
2018-12-06T15:37:50.058Z,95998.06
2018-12-06T15:40:20.066Z,95997.16
2018-12-06T15:42:50.009Z,95986.75
2018-12-06T15:45:19.961Z,95991.06
2018-12-06T15:47:50.093Z,95993.67
2018-12-06T15:50:19.971Z,95986.32
2018-12-06T15:52:50.610Z,95987.16
2018-12-06T15:55:20.620Z,95986.75
2018-12-06T15:57:50.545Z,95999.00
2018-12-06T16:00:20.586Z,96001.66
2018-12-06T16:02:52.011Z,96003.44
2018-12-06T16:05:22.153Z,95997.39
2018-12-06T16:07:52.172Z,96005.57
2018-12-06T16:10:22.153Z,95992.55
2018-12-06T16:12:52.268Z,95993.48
2018-12-06T16:15:22.403Z,95992.59
2018-12-06T16:17:52.350Z,95996.98
2018-12-06T16:20:22.482Z,95989.56
2018-12-06T16:22:52.390Z,95989.32
2018-12-06T16:25:22.351Z,95980.26
2018-12-06T16:27:52.263Z,95988.55
2018-12-06T16:30:22.295Z,95985.52
2018-12-06T16:32:52.350Z,95992.45
2018-12-06T16:35:22.213Z,95986.05
2018-12-06T16:37:52.283Z,95983.86
2018-12-06T16:40:22.221Z,95978.64
2018-12-06T16:42:52.137Z,95976.45
2018-12-06T16:45:22.425Z,95984.22
2018-12-06T16:47:52.378Z,95974.33
2018-12-06T16:50:22.515Z,95986.52
2018-12-06T16:52:52.417Z,95984.44
2018-12-06T16:55:22.374Z,95990.18
2018-12-06T16:57:52.403Z,95995.39
2018-12-06T17:00:22.541Z,96004.55
2018-12-06T17:02:53.021Z,96003.34
2018-12-06T17:05:22.867Z,96000.84
2018-12-06T17:07:52.748Z,96006.47
2018-12-06T17:10:22.619Z,96010.31
2018-12-06T17:12:52.907Z,96007.30
2018-12-06T17:15:22.923Z,96009.95
2018-12-06T17:17:52.897Z,96010.78
2018-12-06T17:20:22.760Z,96008.09
2018-12-06T17:22:53.267Z,96011.16
2018-12-06T17:25:23.207Z,96011.98
2018-12-06T17:27:53.549Z,96010.64
2018-12-06T17:30:23.432Z,96008.92
2018-12-06T17:32:54.137Z,96007.15
2018-12-06T17:35:24.096Z,96005.02
2018-12-06T17:37:54.029Z,96012.36
2018-12-06T17:40:23.923Z,96022.72
2018-12-06T17:42:54.144Z,96027.04
2018-12-06T17:45:24.256Z,96029.18
2018-12-06T17:47:54.212Z,96036.16
2018-12-06T17:50:24.763Z,96034.85
2018-12-06T17:52:55.090Z,96040.09
2018-12-06T17:55:25.140Z,96043.13
2018-12-06T17:57:55.042Z,96037.45
2018-12-06T18:00:25.083Z,96038.24
2018-12-06T18:02:55.001Z,96044.74
2018-12-06T18:05:53.095Z,96043.81
2018-12-06T18:08:24.120Z,96042.98
2018-12-06T18:10:54.303Z,96045.63
2018-12-06T18:13:24.573Z,96049.45
2018-12-06T18:15:54.999Z,96055.53
2018-12-06T18:18:25.056Z,96049.12
2018-12-06T18:20:55.116Z,96051.25
2018-12-06T18:23:25.122Z,96052.98
2018-12-06T18:25:55.325Z,96047.77
2018-12-06T18:28:25.408Z,96056.52
2018-12-06T18:30:59.192Z,96047.77
2018-12-06T18:33:30.528Z,96050.38
2018-12-06T18:36:01.502Z,96050.33
2018-12-06T18:38:31.722Z,96057.73
2018-12-06T18:41:02.010Z,96063.36
2018-12-06T18:43:32.444Z,96055.13
2018-12-06T18:46:02.511Z,96048.30
2018-12-06T18:48:32.773Z,96046.94
2018-12-06T18:51:02.836Z,96047.46
2018-12-06T18:53:32.988Z,96038.02
2018-12-06T18:56:03.735Z,96038.36
2018-12-06T18:58:34.733Z,96038.02
2018-12-06T19:01:05.374Z,96038.96
2018-12-06T19:03:35.384Z,96031.19
2018-12-06T19:06:05.406Z,96038.64
2018-12-06T19:08:35.445Z,96033.10
2018-12-06T19:11:06.507Z,96039.23
2018-12-06T19:13:36.951Z,96038.81
2018-12-06T19:16:07.294Z,96045.33
2018-12-06T19:18:37.854Z,96035.28
2018-12-06T19:21:10.217Z,96041.00
2018-12-06T19:23:40.241Z,96040.49
2018-12-06T19:26:10.258Z,96036.59
2018-12-06T19:28:44.571Z,96047.45
2018-12-06T19:31:14.617Z,96040.06
2018-12-06T19:33:44.896Z,96044.81
2018-12-06T19:36:15.190Z,96048.67
2018-12-06T19:38:45.775Z,96045.14
2018-12-06T19:41:15.870Z,96041.66
2018-12-06T19:43:45.940Z,96044.27
2018-12-06T19:46:15.936Z,96047.73
2018-12-06T19:48:46.341Z,96041.66
2018-12-06T19:51:16.394Z,96044.68
2018-12-06T19:53:46.860Z,96041.66
2018-12-06T19:56:16.997Z,96041.23
2018-12-06T19:58:47.103Z,96043.33
2018-12-06T20:01:17.220Z,96036.82
2018-12-06T20:03:47.950Z,96043.75
2018-12-06T20:06:19.504Z,96043.75
2018-12-06T20:08:49.577Z,96036.82
2018-12-06T20:11:20.169Z,96035.56
2018-12-06T20:13:50.254Z,96028.69
2018-12-06T20:16:20.533Z,96021.34
2018-12-06T20:18:51.207Z,96018.64
2018-12-06T20:21:21.182Z,96013.90
2018-12-06T20:23:51.964Z,96018.23
2018-12-06T20:26:22.177Z,96015.58
2018-12-06T20:28:52.237Z,96011.72
2018-12-06T20:31:26.443Z,96013.95
2018-12-06T20:33:57.545Z,96010.88
2018-12-06T20:36:30.706Z,96005.63
2018-12-06T20:39:02.809Z,96009.48
2018-12-06T20:41:33.504Z,96005.59
2018-12-06T20:44:03.622Z,96000.42
2018-12-06T20:46:33.514Z,96006.93
2018-12-06T20:49:05.670Z,96006.42
2018-12-06T20:51:36.556Z,96013.80
2018-12-06T20:54:06.668Z,96006.41
2018-12-06T20:56:36.699Z,96009.86
2018-12-06T20:59:06.790Z,96010.32
2018-12-06T21:01:36.787Z,96005.11
2018-12-06T21:04:06.723Z,96005.16
2018-12-06T21:06:38.027Z,96001.63
2018-12-06T21:09:20.702Z,95997.34
2018-12-06T21:11:52.127Z,96004.64
2018-12-06T21:14:25.485Z,95992.46
2018-12-06T21:16:55.754Z,96005.02
2018-12-06T21:19:29.887Z,95998.98
2018-12-06T21:22:00.140Z,95997.20
2018-12-06T21:24:30.698Z,96010.17
2018-12-06T21:27:00.896Z,96003.76
2018-12-06T21:29:31.465Z,95995.91
2018-12-06T21:32:01.504Z,95999.34
2018-12-06T21:34:31.559Z,95994.07
2018-12-06T21:37:01.585Z,95986.69
2018-12-06T21:39:31.662Z,95995.83
2018-12-06T21:42:01.567Z,95988.86
2018-12-06T21:44:31.707Z,95987.55
2018-12-06T21:47:01.715Z,95984.06
2018-12-06T21:49:31.684Z,95987.45
2018-12-06T21:52:01.985Z,95979.17
2018-12-06T21:54:32.054Z,95979.59
2018-12-06T21:57:01.979Z,95978.30
2018-12-06T21:59:31.910Z,95971.36
2018-12-06T22:02:13.198Z,95977.81
2018-12-06T22:04:43.631Z,95978.71
2018-12-06T22:07:13.752Z,95974.89
2018-12-06T22:09:44.011Z,95973.08
2018-12-06T22:12:13.920Z,95977.88
2018-12-06T22:14:44.026Z,95970.47
2018-12-06T22:17:14.181Z,95975.69
2018-12-06T22:19:44.061Z,95977.03
2018-12-06T22:22:14.072Z,95980.06
2018-12-06T22:24:44.685Z,95985.22
2018-12-06T22:27:15.279Z,95974.38
2018-12-06T22:29:45.719Z,95975.73
2018-12-06T22:32:15.768Z,95969.27
2018-12-06T22:34:45.759Z,95968.03
2018-12-06T22:37:15.590Z,95975.85
2018-12-06T22:39:45.483Z,95977.55
2018-12-06T22:42:15.322Z,95965.42
2018-12-06T22:44:45.423Z,95971.94
2018-12-06T22:47:17.528Z,95961.05
2018-12-06T22:49:47.518Z,95960.64
2018-12-06T22:52:17.476Z,95963.19
2018-12-06T22:54:47.440Z,95967.05
2018-12-06T22:57:17.741Z,95964.80
2018-12-06T22:59:47.758Z,95959.58
2018-12-06T23:02:18.614Z,95955.58
2018-12-06T23:04:48.622Z,95952.56
2018-12-06T23:07:18.511Z,95956.87
2018-12-06T23:09:48.529Z,95957.23
2018-12-06T23:12:18.376Z,95960.25
2018-12-06T23:14:48.247Z,95958.06
2018-12-06T23:17:18.166Z,95966.28
2018-12-06T23:19:48.073Z,95959.83
2018-12-06T23:22:17.958Z,95966.77
2018-12-06T23:24:47.870Z,95967.18
2018-12-06T23:27:17.818Z,95957.16
2018-12-06T23:29:47.710Z,95964.98
2018-12-06T23:32:17.619Z,95959.73
2018-12-06T23:34:47.553Z,95961.07
2018-12-06T23:37:17.486Z,95958.05
2018-12-06T23:39:47.388Z,95950.61
2018-12-06T23:42:17.985Z,95951.48
2018-12-06T23:44:47.973Z,95952.33
2018-12-06T23:47:17.841Z,95951.06
2018-12-06T23:49:47.750Z,95946.22
2018-12-06T23:52:17.651Z,95944.50
2018-12-06T23:54:47.562Z,95944.92
2018-12-06T23:57:17.459Z,95937.16
2018-12-06T23:59:47.390Z,95935.91
